createdAt,value
2019-05-09T00:01:14.321Z,2.42
2019-05-09T00:03:44.336Z,1.55
2019-05-09T00:06:13.735Z,1.67
2019-05-09T00:08:44.133Z,1.77
2019-05-09T00:11:14.413Z,1.72
2019-05-09T00:13:43.921Z,1.65
2019-05-09T00:16:14.492Z,1.52
2019-05-09T00:18:44.214Z,1.50
2019-05-09T00:21:14.891Z,1.50
2019-05-09T00:23:43.861Z,1.50
2019-05-09T00:26:13.452Z,1.67
2019-05-09T00:28:44.476Z,1.50
2019-05-09T00:31:14.943Z,1.47
2019-05-09T00:33:48.036Z,1.65
2019-05-09T00:36:16.176Z,1.87
2019-05-09T00:38:45.980Z,1.52
2019-05-09T00:41:14.829Z,1.70
2019-05-09T00:43:45.319Z,1.50
2019-05-09T00:46:15.878Z,2.02
2019-05-09T00:48:46.317Z,2.00
2019-05-09T00:51:15.149Z,1.80
2019-05-09T00:53:44.440Z,1.80
2019-05-09T00:56:13.537Z,1.72
2019-05-09T00:58:44.088Z,1.75
2019-05-09T01:01:14.823Z,1.72
2019-05-09T01:03:43.654Z,1.57
2019-05-09T01:06:13.425Z,1.72
2019-05-09T01:08:44.226Z,1.40
2019-05-09T01:11:15.582Z,1.22
2019-05-09T01:13:44.021Z,1.25
2019-05-09T01:16:13.404Z,1.95
2019-05-09T01:18:43.733Z,2.00
2019-05-09T01:21:13.430Z,1.02
2019-05-09T01:23:43.665Z,2.17
2019-05-09T01:26:13.317Z,1.75
2019-05-09T01:28:44.237Z,1.98
2019-05-09T01:31:13.351Z,1.70
2019-05-09T01:33:44.020Z,1.50
2019-05-09T01:36:14.401Z,1.77
2019-05-09T01:38:43.498Z,1.67
2019-05-09T01:41:24.742Z,2.30
2019-05-09T01:43:44.294Z,2.12
2019-05-09T01:46:14.456Z,2.10
2019-05-09T01:48:43.507Z,1.85
2019-05-09T01:51:13.885Z,1.60
2019-05-09T01:53:44.626Z,1.40
2019-05-09T01:56:13.988Z,1.70
2019-05-09T01:58:43.147Z,1.40
2019-05-09T02:01:13.480Z,2.02
2019-05-09T02:03:44.319Z,1.50
2019-05-09T02:06:13.659Z,1.70
2019-05-09T02:08:43.793Z,1.77
2019-05-09T02:11:13.423Z,1.60
2019-05-09T02:13:44.199Z,1.98
2019-05-09T02:16:17.506Z,2.00
2019-05-09T02:18:50.766Z,1.60
2019-05-09T02:21:19.539Z,1.82
2019-05-09T02:23:48.280Z,1.90
2019-05-09T02:26:17.092Z,2.17
2019-05-09T02:28:47.414Z,2.00
2019-05-09T02:31:16.691Z,1.90
2019-05-09T02:33:46.035Z,1.62
2019-05-09T02:36:14.924Z,1.72
2019-05-09T02:38:43.762Z,1.92
2019-05-09T02:41:13.166Z,1.95
2019-05-09T02:43:42.000Z,2.00
2019-05-09T02:46:18.411Z,2.05
2019-05-09T02:48:49.227Z,2.10
2019-05-09T02:51:18.551Z,2.12
2019-05-09T02:53:48.599Z,2.25
2019-05-09T02:56:18.839Z,2.12
2019-05-09T02:58:55.154Z,2.10
2019-05-09T03:01:25.628Z,2.25
2019-05-09T03:03:54.452Z,1.95
2019-05-09T03:06:23.277Z,2.33
2019-05-09T03:08:52.127Z,2.10
2019-05-09T03:11:20.937Z,2.25
2019-05-09T03:13:49.802Z,2.37
2019-05-09T03:16:19.253Z,2.00
2019-05-09T03:18:49.456Z,1.98
2019-05-09T03:21:20.196Z,2.10
2019-05-09T03:23:49.111Z,2.22
2019-05-09T03:26:19.755Z,1.90
2019-05-09T03:28:59.131Z,2.00
2019-05-09T03:31:30.967Z,1.90
2019-05-09T03:33:59.922Z,2.17
2019-05-09T03:36:28.916Z,2.40
2019-05-09T03:38:57.911Z,1.82
2019-05-09T03:41:28.257Z,2.22
2019-05-09T03:43:58.623Z,2.12
2019-05-09T03:46:29.341Z,2.00
2019-05-09T03:49:09.857Z,1.90
2019-05-09T03:51:39.829Z,2.10
2019-05-09T03:54:08.667Z,2.30
2019-05-09T03:56:41.860Z,2.00
2019-05-09T03:59:10.611Z,2.15
2019-05-09T04:01:39.463Z,1.90
2019-05-09T04:04:08.900Z,2.10
2019-05-09T04:06:39.191Z,1.92
2019-05-09T04:09:08.871Z,2.20
2019-05-09T04:11:38.187Z,2.08
2019-05-09T04:14:14.391Z,2.27
2019-05-09T04:16:44.558Z,1.90
2019-05-09T04:19:13.391Z,2.05
2019-05-09T04:21:42.296Z,2.40
2019-05-09T04:24:11.184Z,2.33
2019-05-09T04:26:53.557Z,1.85
2019-05-09T04:29:22.321Z,2.20
2019-05-09T04:31:51.165Z,2.00
2019-05-09T04:34:19.927Z,1.90
2019-05-09T04:36:48.680Z,1.95
2019-05-09T04:39:21.873Z,2.00
2019-05-09T04:41:48.630Z,2.27
2019-05-09T04:44:22.317Z,2.30
2019-05-09T04:46:54.034Z,2.10
2019-05-09T04:49:21.761Z,2.12
2019-05-09T04:51:50.673Z,1.80
2019-05-09T04:54:19.583Z,2.20
2019-05-09T04:56:49.498Z,1.90
2019-05-09T04:59:18.433Z,2.12
2019-05-09T05:01:51.451Z,1.52
2019-05-09T05:04:22.070Z,1.98
2019-05-09T05:06:51.028Z,2.10
2019-05-09T05:09:21.393Z,1.65
2019-05-09T05:11:50.637Z,1.30
2019-05-09T05:14:25.289Z,1.30
2019-05-09T05:19:31.360Z,1.30
2019-05-09T05:22:00.818Z,1.42
2019-05-09T05:24:38.152Z,1.85
2019-05-09T05:27:08.243Z,1.30
2019-05-09T05:29:38.338Z,1.92
2019-05-09T05:32:09.382Z,2.10
2019-05-09T05:34:39.932Z,1.80
2019-05-09T05:37:08.877Z,2.00
2019-05-09T05:39:37.718Z,1.85
2019-05-09T05:42:08.304Z,1.95
2019-05-09T05:44:38.616Z,1.85
2019-05-09T05:47:15.019Z,1.70
2019-05-09T05:49:43.927Z,1.87
2019-05-09T05:52:12.914Z,2.10
2019-05-09T05:54:41.807Z,2.27
2019-05-09T05:57:10.741Z,2.08
2019-05-09T05:59:41.866Z,2.10
2019-05-09T06:02:10.781Z,2.17
2019-05-09T06:04:39.553Z,2.20
2019-05-09T06:07:08.452Z,2.12
2019-05-09T06:09:38.038Z,2.42
2019-05-09T06:12:08.286Z,2.22
2019-05-09T06:14:37.785Z,1.95
2019-05-09T06:17:07.992Z,2.60
2019-05-09T06:19:37.944Z,3.47
2019-05-09T06:22:08.405Z,2.47
2019-05-09T06:24:38.634Z,2.52
2019-05-09T06:27:10.438Z,2.95
2019-05-09T06:29:38.922Z,2.80
2019-05-09T06:32:08.153Z,2.80
2019-05-09T06:34:41.906Z,2.98
2019-05-09T06:37:08.902Z,3.10
2019-05-09T06:39:38.546Z,2.67
2019-05-09T06:42:08.984Z,2.80
2019-05-09T06:44:39.586Z,1.80
2019-05-09T06:47:14.102Z,2.00
2019-05-09T06:49:44.700Z,2.42
2019-05-09T06:52:13.677Z,2.80
2019-05-09T06:54:42.530Z,2.77
2019-05-09T06:57:12.032Z,1.98
2019-05-09T06:59:40.974Z,2.30
2019-05-09T07:02:20.500Z,2.80
2019-05-09T07:04:51.045Z,2.52
2019-05-09T07:07:24.637Z,2.20
2019-05-09T07:09:58.590Z,2.85
2019-05-09T07:12:44.605Z,2.87
2019-05-09T07:15:14.231Z,2.40
2019-05-09T07:17:44.716Z,2.70
2019-05-09T07:20:13.757Z,2.90
2019-05-09T07:22:48.183Z,2.42
2019-05-09T07:25:18.801Z,2.47
2019-05-09T07:27:48.358Z,2.20
2019-05-09T07:30:23.688Z,1.98
2019-05-09T07:32:54.507Z,2.20
2019-05-09T07:35:23.369Z,2.25
2019-05-09T07:37:52.278Z,2.87
2019-05-09T07:40:21.291Z,2.33
2019-05-09T07:42:52.787Z,2.95
2019-05-09T07:45:21.674Z,3.00
2019-05-09T07:47:50.603Z,2.42
2019-05-09T07:50:19.518Z,2.58
2019-05-09T07:52:48.428Z,2.27
2019-05-09T07:55:17.998Z,2.08
2019-05-09T07:57:54.980Z,2.40
2019-05-09T08:00:22.493Z,2.42
2019-05-09T08:02:51.941Z,2.50
2019-05-09T08:05:28.725Z,2.20
2019-05-09T08:07:58.654Z,2.60
2019-05-09T08:10:30.636Z,2.40
2019-05-09T08:12:58.684Z,2.67
2019-05-09T08:15:28.173Z,2.60
2019-05-09T08:17:59.090Z,3.50
2019-05-09T08:20:28.968Z,3.12
2019-05-09T08:23:01.560Z,3.65
2019-05-09T08:25:30.386Z,3.55
2019-05-09T08:27:59.298Z,3.62
2019-05-09T08:30:35.534Z,4.20
2019-05-09T08:32:59.917Z,3.95
2019-05-09T08:35:28.897Z,2.92
2019-05-09T08:37:58.461Z,4.00
2019-05-09T08:40:28.471Z,4.35
2019-05-09T08:42:58.881Z,2.80
2019-05-09T08:45:31.311Z,3.90
2019-05-09T08:47:58.511Z,2.85
2019-05-09T08:50:32.137Z,3.83
2019-05-09T08:53:01.031Z,4.03
2019-05-09T08:55:29.986Z,3.98
2019-05-09T08:57:58.868Z,3.50
2019-05-09T09:00:28.244Z,2.85
2019-05-09T09:02:57.547Z,3.25
2019-05-09T09:05:28.656Z,2.83
2019-05-09T09:07:59.268Z,3.27
2019-05-09T09:10:28.904Z,2.75
2019-05-09T09:12:58.414Z,2.05
2019-05-09T09:15:55.894Z,2.60
2019-05-09T09:17:59.327Z,2.10
2019-05-09T09:20:29.590Z,2.15
2019-05-09T09:22:58.578Z,2.33
2019-05-09T09:25:28.662Z,2.47
2019-05-09T09:27:59.602Z,2.77
2019-05-09T09:30:31.511Z,2.15
2019-05-09T09:33:00.321Z,1.70
2019-05-09T09:35:29.171Z,2.15
2019-05-09T09:37:58.281Z,2.10
2019-05-09T09:40:27.892Z,2.20
2019-05-09T09:42:58.503Z,2.60
2019-05-09T09:45:28.064Z,2.35
2019-05-09T09:47:59.090Z,2.40
2019-05-09T09:50:28.072Z,2.35
2019-05-09T09:52:58.944Z,1.57
2019-05-09T09:55:27.926Z,1.57
2019-05-09T09:57:57.832Z,1.90
2019-05-09T10:01:03.674Z,2.35
2019-05-09T10:06:02.938Z,1.72
2019-05-09T10:08:31.831Z,1.30
2019-05-09T10:11:00.667Z,1.40
2019-05-09T10:13:29.519Z,1.90
2019-05-09T10:16:26.589Z,1.20
2019-05-09T10:18:50.166Z,1.10
2019-05-09T10:21:23.565Z,1.17
2019-05-09T10:23:52.473Z,1.20
2019-05-09T10:26:21.450Z,1.05
2019-05-09T10:28:51.039Z,1.00
2019-05-09T10:31:19.869Z,0.80
2019-05-09T10:33:48.922Z,0.98
2019-05-09T10:36:17.857Z,1.00
2019-05-09T10:38:48.155Z,0.60
2019-05-09T10:41:19.634Z,0.70
2019-05-09T10:43:52.573Z,0.80
2019-05-09T10:46:48.316Z,1.87
2019-05-09T10:49:04.076Z,1.10
2019-05-09T10:51:34.417Z,0.70
2019-05-09T10:54:03.301Z,1.30
2019-05-09T10:56:32.264Z,1.00
2019-05-09T10:59:01.302Z,1.10
2019-05-09T11:01:30.746Z,1.35
2019-05-09T11:03:59.741Z,1.10
2019-05-09T11:09:22.010Z,1.30
2019-05-09T11:11:50.964Z,1.32
2019-05-09T11:14:32.693Z,1.42
2019-05-09T11:17:06.832Z,1.40
2019-05-09T11:19:24.086Z,1.67
2019-05-09T11:21:53.031Z,0.95
2019-05-09T11:24:37.796Z,1.00
2019-05-09T11:26:52.405Z,1.00
2019-05-09T11:29:21.402Z,1.50
2019-05-09T11:31:50.307Z,1.15
2019-05-09T11:34:19.142Z,1.07
2019-05-09T11:36:49.804Z,1.30
2019-05-09T11:39:35.075Z,1.00
2019-05-09T11:41:49.036Z,1.10
2019-05-09T11:44:18.440Z,1.90
2019-05-09T11:46:47.766Z,1.72
2019-05-09T11:49:18.049Z,2.00
2019-05-09T11:51:48.213Z,2.47
2019-05-09T11:54:19.363Z,1.67
2019-05-09T11:56:48.193Z,2.05
2019-05-09T11:59:18.959Z,2.10
2019-05-09T12:01:48.272Z,2.30
2019-05-09T12:04:18.674Z,2.70
2019-05-09T12:06:51.451Z,2.17
2019-05-09T12:09:23.149Z,2.67
2019-05-09T12:11:51.937Z,1.77
2019-05-09T12:14:20.838Z,1.65
2019-05-09T12:16:53.621Z,2.37
2019-05-09T12:19:24.037Z,2.58
2019-05-09T12:21:53.907Z,2.20
2019-05-09T12:24:22.970Z,1.87
2019-05-09T12:26:53.341Z,1.75
2019-05-09T12:29:22.112Z,2.22
2019-05-09T12:31:51.013Z,2.17
2019-05-09T12:34:19.967Z,2.33
2019-05-09T12:36:49.767Z,1.90
2019-05-09T12:39:19.123Z,1.82
2019-05-09T12:41:48.544Z,1.90
2019-05-09T12:44:18.404Z,1.47
2019-05-09T12:46:48.800Z,2.25
2019-05-09T12:49:19.025Z,1.25
2019-05-09T12:51:48.233Z,1.37
2019-05-09T12:54:18.990Z,1.25
2019-05-09T12:56:48.575Z,1.52
2019-05-09T12:59:18.748Z,1.50
2019-05-09T13:01:49.176Z,1.10
2019-05-09T13:04:18.673Z,1.10
2019-05-09T13:06:48.799Z,1.05
2019-05-09T13:09:18.262Z,1.35
2019-05-09T13:11:48.419Z,1.35
2019-05-09T13:14:19.259Z,1.40
2019-05-09T13:17:00.053Z,1.50
2019-05-09T13:19:39.095Z,1.62
2019-05-09T13:22:09.303Z,1.40
2019-05-09T13:24:38.097Z,1.80
2019-05-09T13:27:07.836Z,1.57
2019-05-09T13:29:38.169Z,1.70
2019-05-09T13:32:08.730Z,1.15
2019-05-09T13:34:38.241Z,2.10
2019-05-09T13:37:09.170Z,1.62
2019-05-09T13:39:39.669Z,2.30
2019-05-09T13:42:08.457Z,1.90
2019-05-09T13:44:41.240Z,2.25
2019-05-09T13:47:10.610Z,1.90
2019-05-09T13:49:39.652Z,1.20
2019-05-09T13:52:10.192Z,1.70
2019-05-09T13:54:41.487Z,1.50
2019-05-09T13:57:10.419Z,1.77
2019-05-09T13:59:41.920Z,2.27
2019-05-09T14:02:10.814Z,2.80
2019-05-09T14:04:39.882Z,2.70
2019-05-09T14:07:08.883Z,1.40
2019-05-09T14:09:38.489Z,2.50
2019-05-09T14:12:09.283Z,1.30
2019-05-09T14:14:38.861Z,1.90
2019-05-09T14:17:08.514Z,2.08
2019-05-09T14:19:45.725Z,1.30
2019-05-09T14:22:09.657Z,2.00
2019-05-09T14:24:40.050Z,2.50
2019-05-09T14:27:08.978Z,2.17
2019-05-09T14:29:38.361Z,2.65
2019-05-09T14:32:07.423Z,3.12
2019-05-09T14:34:39.022Z,2.55
2019-05-09T14:37:09.836Z,2.90
2019-05-09T14:39:54.488Z,1.90
2019-05-09T14:42:10.023Z,2.77
2019-05-09T14:44:41.046Z,1.70
2019-05-09T14:47:11.228Z,2.60
2019-05-09T14:49:44.232Z,2.55
2019-05-09T14:52:11.972Z,2.33
2019-05-09T14:54:43.859Z,2.85
2019-05-09T14:57:12.679Z,2.20
2019-05-09T14:59:41.632Z,2.50
2019-05-09T15:02:10.526Z,1.55
2019-05-09T15:04:40.975Z,3.02
2019-05-09T15:07:09.859Z,3.47
2019-05-09T15:09:42.823Z,3.62
2019-05-09T15:12:11.715Z,3.42
2019-05-09T15:14:42.458Z,2.55
2019-05-09T15:17:12.446Z,3.15
2019-05-09T15:19:56.505Z,2.72
2019-05-09T15:22:11.771Z,3.40
2019-05-09T15:24:40.777Z,3.10
2019-05-09T15:27:10.948Z,4.65
2019-05-09T15:29:42.861Z,4.30
2019-05-09T15:32:14.690Z,3.70
2019-05-09T15:34:43.547Z,3.30
2019-05-09T15:37:12.449Z,3.58
2019-05-09T15:39:41.359Z,3.65
2019-05-09T15:42:10.386Z,4.80
2019-05-09T15:44:39.192Z,2.58
2019-05-09T15:47:24.537Z,4.53
2019-05-09T15:49:57.951Z,5.53
2019-05-09T15:52:28.598Z,5.50
2019-05-09T15:54:58.028Z,4.42
2019-05-09T15:57:27.517Z,6.05
2019-05-09T15:59:58.782Z,7.10
2019-05-09T16:02:28.318Z,5.05
2019-05-09T16:04:58.351Z,5.22
2019-05-09T16:07:28.518Z,3.90
2019-05-09T16:09:58.128Z,7.20
2019-05-09T16:12:28.193Z,6.35
2019-05-09T16:14:57.069Z,7.72
2019-05-09T16:17:28.458Z,3.50
2019-05-09T16:19:59.246Z,3.02
2019-05-09T16:22:29.663Z,4.22
2019-05-09T16:24:58.549Z,4.28
2019-05-09T16:27:29.918Z,4.40
2019-05-09T16:29:58.715Z,5.33
2019-05-09T16:32:27.459Z,6.05
2019-05-09T16:34:56.276Z,4.40
2019-05-09T16:37:25.034Z,5.17
2019-05-09T16:39:53.807Z,6.70
2019-05-09T16:42:22.642Z,6.55
2019-05-09T16:44:51.718Z,5.12
2019-05-09T16:47:22.444Z,3.95
2019-05-09T16:49:51.527Z,3.55
2019-05-09T16:52:20.572Z,5.92
2019-05-09T16:54:51.002Z,6.10
2019-05-09T16:57:19.663Z,5.75
2019-05-09T16:59:48.543Z,4.58
2019-05-09T17:02:23.996Z,6.58
2019-05-09T17:04:47.859Z,6.50
2019-05-09T17:07:18.496Z,4.72
2019-05-09T17:09:48.469Z,7.10
2019-05-09T17:12:18.653Z,7.60
2019-05-09T17:14:47.568Z,6.40
2019-05-09T17:17:17.812Z,5.75
2019-05-09T17:19:48.094Z,7.97
2019-05-09T17:22:18.738Z,5.95
2019-05-09T17:24:48.515Z,9.13
2019-05-09T17:27:18.863Z,9.10
2019-05-09T17:29:48.187Z,9.13
2019-05-09T17:32:20.376Z,9.38
2019-05-09T17:34:49.518Z,8.88
2019-05-09T17:37:19.561Z,9.20
2019-05-09T17:39:48.553Z,9.20
2019-05-09T17:42:35.394Z,9.23
2019-05-09T17:45:05.180Z,8.88
2019-05-09T17:47:34.140Z,9.88
2019-05-09T17:50:03.141Z,9.10
2019-05-09T17:52:35.109Z,10.00
2019-05-09T17:55:04.034Z,9.15
2019-05-09T17:57:32.996Z,9.48
2019-05-09T18:00:01.926Z,9.60
2019-05-09T18:02:30.780Z,9.50
2019-05-09T18:05:20.593Z,10.65
2019-05-09T18:14:18.438Z,11.10
2019-05-09T18:16:50.820Z,10.38
2019-05-09T18:19:19.776Z,11.30
2019-05-09T18:24:39.132Z,10.82
2019-05-09T18:29:58.300Z,11.18
2019-05-09T18:32:49.653Z,11.08
2019-05-09T18:35:27.860Z,11.85
2019-05-09T18:37:58.830Z,9.88
2019-05-09T18:40:28.829Z,11.63
2019-05-09T18:42:58.386Z,12.65
2019-05-09T18:45:29.585Z,11.60
2019-05-09T18:47:59.546Z,12.07
2019-05-09T18:50:28.479Z,11.68
2019-05-09T18:52:57.299Z,11.90
2019-05-09T18:55:26.234Z,10.88
2019-05-09T18:57:55.187Z,11.33
2019-05-09T19:03:46.793Z,11.35
2019-05-09T19:06:15.660Z,9.93
2019-05-09T19:08:46.569Z,11.73
2019-05-09T19:11:16.001Z,11.33
2019-05-09T19:13:44.953Z,11.70
2019-05-09T19:16:16.764Z,11.83
2019-05-09T19:18:54.343Z,11.95
2019-05-09T19:21:47.281Z,10.78
2019-05-09T19:24:24.904Z,12.63
2019-05-09T19:27:01.269Z,13.13
2019-05-09T19:29:30.220Z,12.37
2019-05-09T19:31:59.221Z,12.30
2019-05-09T19:37:59.593Z,13.45
2019-05-09T19:40:28.625Z,13.58
2019-05-09T19:46:41.137Z,13.60
2019-05-09T19:52:38.886Z,9.60
2019-05-09T19:55:10.711Z,8.95
2019-05-09T20:25:52.138Z,10.68
2019-05-09T20:28:29.969Z,10.10
2019-05-09T20:31:01.890Z,10.40
2019-05-09T20:33:40.922Z,10.05
2019-05-09T20:36:09.861Z,9.80
2019-05-09T20:38:39.099Z,10.48
2019-05-09T20:41:09.603Z,10.55
2019-05-09T20:43:40.217Z,9.75
2019-05-09T20:46:10.475Z,10.40
2019-05-09T20:48:39.836Z,10.25
2019-05-09T20:51:08.998Z,10.25
2019-05-09T20:53:38.123Z,10.32
2019-05-09T20:56:07.846Z,9.98
2019-05-09T20:58:37.008Z,9.85
2019-05-09T21:01:06.058Z,9.85
2019-05-09T21:15:27.930Z,10.23
2019-05-09T21:18:09.623Z,9.63
2019-05-09T21:20:39.250Z,10.03
2019-05-09T21:23:22.743Z,10.20
2019-05-09T21:25:39.157Z,6.83
2019-05-09T21:28:08.352Z,10.13
2019-05-09T21:30:37.440Z,9.13
2019-05-09T21:33:06.602Z,9.75
2019-05-09T21:35:35.594Z,10.58
2019-05-09T21:38:04.601Z,9.78
2019-05-09T21:40:33.532Z,10.50
2019-05-09T21:43:02.567Z,10.28
2019-05-09T21:45:31.584Z,10.53
2019-05-09T21:48:00.556Z,10.08
2019-05-09T21:50:29.475Z,10.10
2019-05-09T21:52:58.464Z,10.65
2019-05-09T21:55:27.403Z,10.48
2019-05-09T21:57:56.326Z,9.68
2019-05-09T22:00:32.492Z,8.00
2019-05-09T22:03:01.505Z,10.35
2019-05-09T22:05:30.441Z,11.65
2019-05-09T22:07:59.359Z,12.28
2019-05-09T22:10:29.302Z,11.50
2019-05-09T22:12:58.180Z,11.45
2019-05-09T22:15:27.120Z,12.03
2019-05-09T22:17:56.031Z,11.70
2019-05-09T22:20:24.988Z,11.70
2019-05-09T22:22:53.913Z,11.63
2019-05-09T22:25:22.761Z,11.93
2019-05-09T22:27:51.691Z,10.95
2019-05-09T22:30:21.421Z,10.78
2019-05-09T22:32:50.273Z,11.10
2019-05-09T22:35:19.204Z,11.25
2019-05-09T22:37:48.096Z,11.18
2019-05-09T22:40:17.251Z,10.35
2019-05-09T22:42:46.173Z,10.72
2019-05-09T22:45:15.563Z,10.68
2019-05-09T22:47:44.417Z,9.20
2019-05-09T22:50:13.575Z,10.60
2019-05-09T22:52:42.526Z,10.80
2019-05-09T22:55:11.769Z,10.13
2019-05-09T22:57:40.715Z,9.53
2019-05-09T23:00:10.136Z,10.72
2019-05-09T23:02:39.056Z,10.55
2019-05-09T23:05:07.999Z,9.80
2019-05-09T23:07:36.938Z,9.68
2019-05-09T23:10:07.460Z,10.30
2019-05-09T23:12:36.359Z,10.03
2019-05-09T23:15:07.553Z,10.23
2019-05-09T23:17:36.891Z,10.43
2019-05-09T23:20:09.288Z,10.25
2019-05-09T23:22:38.281Z,11.25
2019-05-09T23:25:09.212Z,11.15
2019-05-09T23:27:38.210Z,10.72
2019-05-09T23:30:08.701Z,9.83
2019-05-09T23:32:41.841Z,8.63
2019-05-09T23:35:11.063Z,10.03
2019-05-09T23:37:40.022Z,10.38
2019-05-09T23:40:09.171Z,9.98
2019-05-09T23:42:38.022Z,10.60
2019-05-09T23:45:07.550Z,11.08
2019-05-09T23:47:36.494Z,10.95
2019-05-09T23:50:07.230Z,11.75
2019-05-09T23:52:36.156Z,13.20
2019-05-09T23:55:23.263Z,12.68
2019-05-09T23:58:09.685Z,14.18
